This is the latest recevied weather packets stored in our database for station/object SR5NLK-1. If no packets are shown the sender has not sent any weather packets the latest 10 day(s).
| Time | Temp. | Humidity | Pressure | Rain* | Wind** | Luminosity | Snow |
|---|---|---|---|---|---|---|---|
| 1787827459 | 24.44° C | 46% | 1078.4 hPa | 0 mm | - | - | - |
| 1787827199 | 25.56° C | 43% | 1090.9 hPa | 0 mm | - | - | - |
| 1787827125 | 25° C | 44% | 1078.4 hPa | 0 mm | - | - | - |
| 1787826899 | 25° C | 44% | 1062.6 hPa | 0 mm | - | - | - |
| 1787826824 | 25.56° C | 44% | 1056.4 hPa | 0 mm | - | - | - |
| 1787826599 | 25° C | 44% | 1062.7 hPa | 0 mm | - | - | - |
| 1787826500 | 26.11° C | 44% | 1081.5 hPa | 0 mm | - | - | - |
| 1787826299 | 25° C | 44% | 1072.1 hPa | 0 mm | - | - | - |
| 1787825999 | 25° C | 45% | 1033.4 hPa | 0 mm | - | - | - |
| 1787825816 | 26.67° C | 43% | 1075.2 hPa | 0 mm | - | - | - |
| 1787825758 | 24.44° C | 45% | 1072.1 hPa | 0 mm | - | - | - |
| 1787825699 | 24.44° C | 45% | 1062.7 hPa | 0 mm | - | - | - |
| 1787825403 | 27.22° C | 44% | 1084.7 hPa | 0 mm | - | - | - |
| 1787825399 | 23.89° C | 45% | 1075.2 hPa | 0 mm | - | - | - |
| 1787825099 | 24.44° C | 45% | 1075.2 hPa | 0 mm | - | - | - |
| 1787825041 | 27.22° C | 43% | 1081.5 hPa | 0 mm | - | - | - |
| 1787824799 | 25° C | 45% | 1059.5 hPa | 0 mm | - | - | - |
| 1787824661 | 27.22° C | 42% | 1090.9 hPa | 0 mm | - | - | - |
| 1787824499 | 25° C | 45% | 1075.3 hPa | 0 mm | - | - | - |
| 1787824306 | 27.78° C | 41% | 1001.8 hPa | 0 mm | - | - | - |
| 1787824234 | 25° C | 45% | 1065.8 hPa | 0 mm | - | - | - |
| 1787824199 | 25° C | 45% | 1065.8 hPa | 0 mm | - | - | - |
| 1787823949 | 28.33° C | 43% | 1075.3 hPa | 0 mm | - | - | - |
| 1787823899 | 24.44° C | 46% | 1062.7 hPa | 0 mm | - | - | - |
| 1787823778 | 24.44° C | 46% | 1039.7 hPa | 0 mm | - | - | - |
* Rain latest hour (hover to see other rain measurements)
** Current wind speed in m/s (hover to see current wind gust speed)